sensor_id;sensor_type;location;lat;lon;timestamp;P1;durP1;ratioP1;P2;durP2;ratioP2
7583;SDS011;3833;41.764;26.204;2022-10-16T00:00:36;7.00;;;4.57;;
7583;SDS011;3833;41.764;26.204;2022-10-16T00:03:05;6.90;;;4.90;;
7583;SDS011;3833;41.764;26.204;2022-10-16T00:05:32;8.60;;;4.63;;
7583;SDS011;3833;41.764;26.204;2022-10-16T00:08:05;6.27;;;5.20;;
7583;SDS011;3833;41.764;26.204;2022-10-16T00:10:33;6.03;;;4.83;;
7583;SDS011;3833;41.764;26.204;2022-10-16T00:13:00;8.17;;;5.23;;
7583;SDS011;3833;41.764;26.204;2022-10-16T00:15:28;9.07;;;5.13;;
7583;SDS011;3833;41.764;26.204;2022-10-16T00:17:55;9.23;;;4.60;;
7583;SDS011;3833;41.764;26.204;2022-10-16T00:20:22;7.03;;;4.80;;
7583;SDS011;3833;41.764;26.204;2022-10-16T00:22:49;6.50;;;4.93;;
7583;SDS011;3833;41.764;26.204;2022-10-16T00:25:17;7.80;;;5.23;;
7583;SDS011;3833;41.764;26.204;2022-10-16T00:27:44;6.20;;;4.03;;
7583;SDS011;3833;41.764;26.204;2022-10-16T00:30:14;7.50;;;4.77;;
7583;SDS011;3833;41.764;26.204;2022-10-16T00:32:41;7.73;;;4.93;;
7583;SDS011;3833;41.764;26.204;2022-10-16T00:35:08;5.80;;;4.53;;
7583;SDS011;3833;41.764;26.204;2022-10-16T00:37:35;6.13;;;4.90;;
7583;SDS011;3833;41.764;26.204;2022-10-16T00:40:02;10.70;;;5.20;;
7583;SDS011;3833;41.764;26.204;2022-10-16T00:42:30;6.30;;;4.90;;
7583;SDS011;3833;41.764;26.204;2022-10-16T00:44:57;7.23;;;5.67;;
7583;SDS011;3833;41.764;26.204;2022-10-16T00:47:26;8.33;;;5.13;;
7583;SDS011;3833;41.764;26.204;2022-10-16T00:49:58;10.37;;;5.50;;
7583;SDS011;3833;41.764;26.204;2022-10-16T00:52:28;11.67;;;5.53;;
7583;SDS011;3833;41.764;26.204;2022-10-16T00:54:56;6.77;;;4.73;;
7583;SDS011;3833;41.764;26.204;2022-10-16T00:57:27;5.30;;;4.80;;
7583;SDS011;3833;41.764;26.204;2022-10-16T00:59:55;6.30;;;4.73;;
7583;SDS011;3833;41.764;26.204;2022-10-16T01:02:23;7.60;;;4.90;;
7583;SDS011;3833;41.764;26.204;2022-10-16T01:04:50;6.87;;;5.00;;
7583;SDS011;3833;41.764;26.204;2022-10-16T01:07:23;5.47;;;4.90;;
7583;SDS011;3833;41.764;26.204;2022-10-16T01:10:06;4.67;;;4.23;;
7583;SDS011;3833;41.764;26.204;2022-10-16T01:12:40;6.53;;;4.83;;
7583;SDS011;3833;41.764;26.204;2022-10-16T01:15:16;6.50;;;4.80;;
7583;SDS011;3833;41.764;26.204;2022-10-16T01:17:51;6.40;;;4.80;;
7583;SDS011;3833;41.764;26.204;2022-10-16T01:20:25;7.70;;;5.33;;
7583;SDS011;3833;41.764;26.204;2022-10-16T01:23:04;5.73;;;4.23;;
7583;SDS011;3833;41.764;26.204;2022-10-16T01:25:50;5.70;;;4.47;;
7583;SDS011;3833;41.764;26.204;2022-10-16T01:28:28;5.70;;;4.47;;
7583;SDS011;3833;41.764;26.204;2022-10-16T01:30:58;6.87;;;4.93;;
7583;SDS011;3833;41.764;26.204;2022-10-16T01:33:28;7.70;;;4.53;;
7583;SDS011;3833;41.764;26.204;2022-10-16T01:36:03;8.60;;;5.20;;
7583;SDS011;3833;41.764;26.204;2022-10-16T01:38:34;5.00;;;4.53;;
7583;SDS011;3833;41.764;26.204;2022-10-16T01:41:04;6.30;;;5.03;;
7583;SDS011;3833;41.764;26.204;2022-10-16T01:43:37;5.47;;;4.30;;
7583;SDS011;3833;41.764;26.204;2022-10-16T01:46:06;7.10;;;4.77;;
7583;SDS011;3833;41.764;26.204;2022-10-16T01:48:35;8.93;;;4.67;;
7583;SDS011;3833;41.764;26.204;2022-10-16T01:51:03;5.37;;;4.87;;
7583;SDS011;3833;41.764;26.204;2022-10-16T01:53:33;8.40;;;5.33;;
7583;SDS011;3833;41.764;26.204;2022-10-16T01:56:01;7.30;;;4.87;;
7583;SDS011;3833;41.764;26.204;2022-10-16T01:58:32;7.83;;;5.00;;
7583;SDS011;3833;41.764;26.204;2022-10-16T02:01:05;6.87;;;5.57;;
7583;SDS011;3833;41.764;26.204;2022-10-16T02:03:35;6.17;;;5.57;;
7583;SDS011;3833;41.764;26.204;2022-10-16T02:06:04;7.07;;;5.50;;
7583;SDS011;3833;41.764;26.204;2022-10-16T02:08:31;8.70;;;5.67;;
7583;SDS011;3833;41.764;26.204;2022-10-16T02:10:58;8.17;;;5.53;;
7583;SDS011;3833;41.764;26.204;2022-10-16T02:13:28;7.87;;;5.87;;
7583;SDS011;3833;41.764;26.204;2022-10-16T02:15:59;9.03;;;6.03;;
7583;SDS011;3833;41.764;26.204;2022-10-16T02:18:27;7.27;;;6.33;;
7583;SDS011;3833;41.764;26.204;2022-10-16T02:20:57;7.80;;;5.50;;
7583;SDS011;3833;41.764;26.204;2022-10-16T02:23:28;7.83;;;5.80;;
7583;SDS011;3833;41.764;26.204;2022-10-16T02:25:59;8.07;;;6.10;;
7583;SDS011;3833;41.764;26.204;2022-10-16T02:28:31;7.80;;;6.70;;
7583;SDS011;3833;41.764;26.204;2022-10-16T02:31:06;8.50;;;6.03;;
7583;SDS011;3833;41.764;26.204;2022-10-16T02:33:38;11.10;;;7.20;;
7583;SDS011;3833;41.764;26.204;2022-10-16T02:36:09;8.43;;;6.17;;
7583;SDS011;3833;41.764;26.204;2022-10-16T02:38:38;9.47;;;7.43;;
7583;SDS011;3833;41.764;26.204;2022-10-16T02:41:07;8.70;;;7.10;;
7583;SDS011;3833;41.764;26.204;2022-10-16T02:43:34;8.83;;;6.87;;
7583;SDS011;3833;41.764;26.204;2022-10-16T02:46:01;9.43;;;7.10;;
7583;SDS011;3833;41.764;26.204;2022-10-16T02:48:28;11.90;;;7.33;;
7583;SDS011;3833;41.764;26.204;2022-10-16T02:50:56;7.93;;;7.10;;
7583;SDS011;3833;41.764;26.204;2022-10-16T02:53:23;9.03;;;6.97;;
7583;SDS011;3833;41.764;26.204;2022-10-16T02:55:50;13.77;;;7.57;;
7583;SDS011;3833;41.764;26.204;2022-10-16T02:58:16;8.70;;;7.30;;
7583;SDS011;3833;41.764;26.204;2022-10-16T03:00:43;13.57;;;8.27;;
7583;SDS011;3833;41.764;26.204;2022-10-16T03:03:10;16.30;;;8.43;;
7583;SDS011;3833;41.764;26.204;2022-10-16T03:05:39;10.50;;;8.63;;
7583;SDS011;3833;41.764;26.204;2022-10-16T03:08:08;13.97;;;8.53;;
7583;SDS011;3833;41.764;26.204;2022-10-16T03:10:35;10.40;;;8.60;;
7583;SDS011;3833;41.764;26.204;2022-10-16T03:13:01;10.47;;;8.60;;
7583;SDS011;3833;41.764;26.204;2022-10-16T03:15:31;12.40;;;8.93;;
7583;SDS011;3833;41.764;26.204;2022-10-16T03:17:58;10.63;;;9.00;;
7583;SDS011;3833;41.764;26.204;2022-10-16T03:20:26;8.50;;;7.50;;
7583;SDS011;3833;41.764;26.204;2022-10-16T03:22:53;10.17;;;8.70;;
7583;SDS011;3833;41.764;26.204;2022-10-16T03:25:21;18.13;;;8.40;;
7583;SDS011;3833;41.764;26.204;2022-10-16T03:27:49;11.90;;;8.40;;
7583;SDS011;3833;41.764;26.204;2022-10-16T03:30:16;10.33;;;7.83;;
7583;SDS011;3833;41.764;26.204;2022-10-16T03:32:43;11.27;;;7.97;;
7583;SDS011;3833;41.764;26.204;2022-10-16T03:35:10;12.73;;;7.93;;
7583;SDS011;3833;41.764;26.204;2022-10-16T03:37:37;12.60;;;8.40;;
7583;SDS011;3833;41.764;26.204;2022-10-16T03:40:08;14.07;;;7.93;;
7583;SDS011;3833;41.764;26.204;2022-10-16T03:42:37;12.33;;;7.53;;
7583;SDS011;3833;41.764;26.204;2022-10-16T03:45:04;8.43;;;7.53;;
7583;SDS011;3833;41.764;26.204;2022-10-16T03:47:32;13.47;;;8.03;;
7583;SDS011;3833;41.764;26.204;2022-10-16T03:49:58;9.83;;;7.53;;
7583;SDS011;3833;41.764;26.204;2022-10-16T03:52:25;8.90;;;7.57;;
7583;SDS011;3833;41.764;26.204;2022-10-16T03:54:52;12.60;;;8.30;;
7583;SDS011;3833;41.764;26.204;2022-10-16T03:57:19;11.63;;;7.83;;
7583;SDS011;3833;41.764;26.204;2022-10-16T03:59:51;10.13;;;7.93;;
7583;SDS011;3833;41.764;26.204;2022-10-16T04:02:18;10.03;;;7.97;;
7583;SDS011;3833;41.764;26.204;2022-10-16T04:04:45;9.03;;;7.20;;
7583;SDS011;3833;41.764;26.204;2022-10-16T04:07:11;11.13;;;8.93;;
7583;SDS011;3833;41.764;26.204;2022-10-16T04:09:38;10.43;;;7.87;;
7583;SDS011;3833;41.764;26.204;2022-10-16T04:12:05;8.83;;;7.93;;
7583;SDS011;3833;41.764;26.204;2022-10-16T04:14:32;9.50;;;7.10;;
7583;SDS011;3833;41.764;26.204;2022-10-16T04:17:03;9.93;;;7.37;;
7583;SDS011;3833;41.764;26.204;2022-10-16T04:19:30;10.03;;;7.20;;
7583;SDS011;3833;41.764;26.204;2022-10-16T04:21:57;11.40;;;7.70;;
7583;SDS011;3833;41.764;26.204;2022-10-16T04:24:23;10.80;;;7.63;;
7583;SDS011;3833;41.764;26.204;2022-10-16T04:26:50;10.47;;;7.47;;
7583;SDS011;3833;41.764;26.204;2022-10-16T04:29:17;11.63;;;7.27;;
7583;SDS011;3833;41.764;26.204;2022-10-16T04:31:44;9.70;;;7.43;;
7583;SDS011;3833;41.764;26.204;2022-10-16T04:34:12;10.53;;;8.03;;
7583;SDS011;3833;41.764;26.204;2022-10-16T04:36:39;12.47;;;7.33;;
7583;SDS011;3833;41.764;26.204;2022-10-16T04:39:06;10.90;;;7.57;;
7583;SDS011;3833;41.764;26.204;2022-10-16T04:41:32;9.27;;;7.53;;
7583;SDS011;3833;41.764;26.204;2022-10-16T04:43:59;11.93;;;7.40;;
7583;SDS011;3833;41.764;26.204;2022-10-16T04:46:26;10.37;;;7.53;;
7583;SDS011;3833;41.764;26.204;2022-10-16T04:48:56;8.67;;;7.00;;
7583;SDS011;3833;41.764;26.204;2022-10-16T04:51:24;11.37;;;7.37;;
7583;SDS011;3833;41.764;26.204;2022-10-16T04:53:52;10.60;;;7.60;;
7583;SDS011;3833;41.764;26.204;2022-10-16T04:56:19;15.33;;;7.33;;
7583;SDS011;3833;41.764;26.204;2022-10-16T04:58:46;11.43;;;7.57;;
7583;SDS011;3833;41.764;26.204;2022-10-16T05:01:13;12.03;;;7.70;;
7583;SDS011;3833;41.764;26.204;2022-10-16T05:03:39;8.20;;;7.40;;
7583;SDS011;3833;41.764;26.204;2022-10-16T05:06:06;10.20;;;8.20;;
7583;SDS011;3833;41.764;26.204;2022-10-16T05:08:35;14.73;;;7.47;;
7583;SDS011;3833;41.764;26.204;2022-10-16T05:11:02;12.90;;;7.63;;
7583;SDS011;3833;41.764;26.204;2022-10-16T05:13:28;9.37;;;7.80;;
7583;SDS011;3833;41.764;26.204;2022-10-16T05:15:55;10.37;;;9.17;;
7583;SDS011;3833;41.764;26.204;2022-10-16T05:18:22;12.73;;;9.73;;
7583;SDS011;3833;41.764;26.204;2022-10-16T05:20:49;14.20;;;9.87;;
7583;SDS011;3833;41.764;26.204;2022-10-16T05:23:16;12.13;;;10.30;;
7583;SDS011;3833;41.764;26.204;2022-10-16T05:25:44;14.27;;;10.07;;
7583;SDS011;3833;41.764;26.204;2022-10-16T05:28:18;12.33;;;10.50;;
7583;SDS011;3833;41.764;26.204;2022-10-16T05:30:45;12.77;;;10.73;;
7583;SDS011;3833;41.764;26.204;2022-10-16T05:33:12;12.57;;;10.20;;
7583;SDS011;3833;41.764;26.204;2022-10-16T05:35:39;15.03;;;10.53;;
7583;SDS011;3833;41.764;26.204;2022-10-16T05:38:06;11.87;;;9.73;;
7583;SDS011;3833;41.764;26.204;2022-10-16T05:40:32;11.27;;;10.17;;
7583;SDS011;3833;41.764;26.204;2022-10-16T05:43:01;12.30;;;9.80;;
7583;SDS011;3833;41.764;26.204;2022-10-16T05:45:29;11.70;;;8.83;;
7583;SDS011;3833;41.764;26.204;2022-10-16T05:47:56;15.97;;;9.27;;
7583;SDS011;3833;41.764;26.204;2022-10-16T05:50:22;11.10;;;9.47;;
7583;SDS011;3833;41.764;26.204;2022-10-16T05:52:49;8.60;;;7.80;;
7583;SDS011;3833;41.764;26.204;2022-10-16T05:55:16;12.90;;;9.67;;
7583;SDS011;3833;41.764;26.204;2022-10-16T05:57:43;9.93;;;8.87;;
7583;SDS011;3833;41.764;26.204;2022-10-16T06:00:12;9.10;;;8.10;;
7583;SDS011;3833;41.764;26.204;2022-10-16T06:02:41;13.47;;;8.83;;
7583;SDS011;3833;41.764;26.204;2022-10-16T06:05:08;9.03;;;8.10;;
7583;SDS011;3833;41.764;26.204;2022-10-16T06:07:35;8.93;;;7.70;;
7583;SDS011;3833;41.764;26.204;2022-10-16T06:10:02;12.70;;;8.37;;
7583;SDS011;3833;41.764;26.204;2022-10-16T06:12:30;8.40;;;7.50;;
7583;SDS011;3833;41.764;26.204;2022-10-16T06:14:57;9.93;;;7.50;;
7583;SDS011;3833;41.764;26.204;2022-10-16T06:17:27;8.70;;;7.10;;
7583;SDS011;3833;41.764;26.204;2022-10-16T06:19:54;15.60;;;7.83;;
7583;SDS011;3833;41.764;26.204;2022-10-16T06:22:21;10.10;;;7.90;;
7583;SDS011;3833;41.764;26.204;2022-10-16T06:24:48;11.30;;;6.90;;
7583;SDS011;3833;41.764;26.204;2022-10-16T06:27:16;9.10;;;6.43;;
7583;SDS011;3833;41.764;26.204;2022-10-16T06:29:44;10.30;;;6.43;;
7583;SDS011;3833;41.764;26.204;2022-10-16T06:32:11;10.50;;;7.27;;
7583;SDS011;3833;41.764;26.204;2022-10-16T06:35:02;9.87;;;7.17;;
7583;SDS011;3833;41.764;26.204;2022-10-16T06:37:30;9.53;;;6.67;;
7583;SDS011;3833;41.764;26.204;2022-10-16T06:39:58;9.97;;;7.27;;
7583;SDS011;3833;41.764;26.204;2022-10-16T06:42:25;10.90;;;7.60;;
7583;SDS011;3833;41.764;26.204;2022-10-16T06:44:55;7.57;;;6.87;;
7583;SDS011;3833;41.764;26.204;2022-10-16T06:47:22;8.73;;;6.30;;
7583;SDS011;3833;41.764;26.204;2022-10-16T06:49:50;9.53;;;6.77;;
7583;SDS011;3833;41.764;26.204;2022-10-16T06:52:18;11.73;;;7.27;;
7583;SDS011;3833;41.764;26.204;2022-10-16T06:54:45;7.20;;;6.40;;
7583;SDS011;3833;41.764;26.204;2022-10-16T06:57:12;7.70;;;6.87;;
7583;SDS011;3833;41.764;26.204;2022-10-16T06:59:39;7.40;;;6.70;;
7583;SDS011;3833;41.764;26.204;2022-10-16T07:02:07;8.53;;;6.33;;
7583;SDS011;3833;41.764;26.204;2022-10-16T07:04:35;7.73;;;6.57;;
7583;SDS011;3833;41.764;26.204;2022-10-16T07:07:02;11.03;;;6.43;;
7583;SDS011;3833;41.764;26.204;2022-10-16T07:09:31;9.37;;;6.63;;
7583;SDS011;3833;41.764;26.204;2022-10-16T07:11:57;8.60;;;5.80;;
7583;SDS011;3833;41.764;26.204;2022-10-16T07:14:24;11.03;;;6.10;;
7583;SDS011;3833;41.764;26.204;2022-10-16T07:16:52;10.07;;;6.50;;
7583;SDS011;3833;41.764;26.204;2022-10-16T07:19:18;8.73;;;6.73;;
7583;SDS011;3833;41.764;26.204;2022-10-16T07:21:45;9.10;;;6.10;;
7583;SDS011;3833;41.764;26.204;2022-10-16T07:24:13;8.73;;;6.17;;
7583;SDS011;3833;41.764;26.204;2022-10-16T07:26:43;9.50;;;6.00;;
7583;SDS011;3833;41.764;26.204;2022-10-16T07:29:12;7.27;;;5.73;;
7583;SDS011;3833;41.764;26.204;2022-10-16T07:31:40;9.03;;;6.20;;
7583;SDS011;3833;41.764;26.204;2022-10-16T07:34:07;7.63;;;5.23;;
7583;SDS011;3833;41.764;26.204;2022-10-16T07:36:33;5.97;;;4.97;;
7583;SDS011;3833;41.764;26.204;2022-10-16T07:39:00;10.10;;;5.50;;
7583;SDS011;3833;41.764;26.204;2022-10-16T07:41:27;6.80;;;4.90;;
7583;SDS011;3833;41.764;26.204;2022-10-16T07:43:56;8.57;;;5.67;;
7583;SDS011;3833;41.764;26.204;2022-10-16T07:46:25;8.00;;;5.17;;
7583;SDS011;3833;41.764;26.204;2022-10-16T07:48:52;8.90;;;4.83;;
7583;SDS011;3833;41.764;26.204;2022-10-16T07:51:22;5.97;;;4.67;;
7583;SDS011;3833;41.764;26.204;2022-10-16T07:53:50;7.87;;;4.83;;
7583;SDS011;3833;41.764;26.204;2022-10-16T07:56:17;5.73;;;4.40;;
7583;SDS011;3833;41.764;26.204;2022-10-16T07:58:45;8.23;;;4.90;;
7583;SDS011;3833;41.764;26.204;2022-10-16T08:01:16;7.90;;;5.63;;
7583;SDS011;3833;41.764;26.204;2022-10-16T08:03:44;7.57;;;4.23;;
7583;SDS011;3833;41.764;26.204;2022-10-16T08:06:11;7.10;;;4.23;;
7583;SDS011;3833;41.764;26.204;2022-10-16T08:08:38;6.00;;;3.87;;
7583;SDS011;3833;41.764;26.204;2022-10-16T08:11:05;10.33;;;4.20;;
7583;SDS011;3833;41.764;26.204;2022-10-16T08:13:33;10.30;;;4.87;;
7583;SDS011;3833;41.764;26.204;2022-10-16T08:16:00;8.13;;;4.17;;
7583;SDS011;3833;41.764;26.204;2022-10-16T08:18:28;4.07;;;3.77;;
7583;SDS011;3833;41.764;26.204;2022-10-16T08:20:55;6.20;;;3.70;;
7583;SDS011;3833;41.764;26.204;2022-10-16T08:23:23;4.80;;;3.73;;
7583;SDS011;3833;41.764;26.204;2022-10-16T08:25:52;6.73;;;4.13;;
7583;SDS011;3833;41.764;26.204;2022-10-16T08:28:20;5.97;;;3.67;;
7583;SDS011;3833;41.764;26.204;2022-10-16T08:30:47;4.50;;;3.30;;
7583;SDS011;3833;41.764;26.204;2022-10-16T08:33:14;5.50;;;3.70;;
7583;SDS011;3833;41.764;26.204;2022-10-16T08:35:42;6.77;;;3.90;;
7583;SDS011;3833;41.764;26.204;2022-10-16T08:38:09;7.73;;;3.87;;
7583;SDS011;3833;41.764;26.204;2022-10-16T08:40:36;3.63;;;3.33;;
7583;SDS011;3833;41.764;26.204;2022-10-16T08:46:11;11.60;;;4.10;;
7583;SDS011;3833;41.764;26.204;2022-10-16T08:48:49;3.97;;;3.57;;
7583;SDS011;3833;41.764;26.204;2022-10-16T08:51:24;3.90;;;3.47;;
7583;SDS011;3833;41.764;26.204;2022-10-16T08:53:55;4.10;;;3.57;;
7583;SDS011;3833;41.764;26.204;2022-10-16T08:56:23;4.40;;;3.57;;
7583;SDS011;3833;41.764;26.204;2022-10-16T08:58:51;3.43;;;3.13;;
7583;SDS011;3833;41.764;26.204;2022-10-16T09:01:22;5.17;;;3.23;;
7583;SDS011;3833;41.764;26.204;2022-10-16T09:03:54;6.57;;;3.67;;
7583;SDS011;3833;41.764;26.204;2022-10-16T09:06:55;6.53;;;3.27;;
7583;SDS011;3833;41.764;26.204;2022-10-16T09:09:34;5.03;;;3.77;;
7583;SDS011;3833;41.764;26.204;2022-10-16T09:12:16;9.90;;;4.10;;
7583;SDS011;3833;41.764;26.204;2022-10-16T09:14:55;3.80;;;3.47;;
7583;SDS011;3833;41.764;26.204;2022-10-16T09:17:32;7.13;;;3.63;;
7583;SDS011;3833;41.764;26.204;2022-10-16T09:20:12;3.30;;;3.00;;
7583;SDS011;3833;41.764;26.204;2022-10-16T09:22:46;5.50;;;3.00;;
7583;SDS011;3833;41.764;26.204;2022-10-16T09:25:14;4.97;;;3.27;;
7583;SDS011;3833;41.764;26.204;2022-10-16T09:27:42;4.27;;;3.30;;
7583;SDS011;3833;41.764;26.204;2022-10-16T09:30:12;3.33;;;3.07;;
7583;SDS011;3833;41.764;26.204;2022-10-16T09:32:42;3.50;;;3.20;;
7583;SDS011;3833;41.764;26.204;2022-10-16T09:35:11;5.30;;;3.07;;
7583;SDS011;3833;41.764;26.204;2022-10-16T09:38:05;4.63;;;3.50;;
7583;SDS011;3833;41.764;26.204;2022-10-16T09:40:34;3.87;;;2.97;;
7583;SDS011;3833;41.764;26.204;2022-10-16T09:43:17;5.87;;;3.43;;
7583;SDS011;3833;41.764;26.204;2022-10-16T09:45:58;3.93;;;3.47;;
7583;SDS011;3833;41.764;26.204;2022-10-16T09:48:27;3.77;;;3.10;;
7583;SDS011;3833;41.764;26.204;2022-10-16T09:50:59;5.53;;;3.63;;
7583;SDS011;3833;41.764;26.204;2022-10-16T09:53:38;5.90;;;3.67;;
7583;SDS011;3833;41.764;26.204;2022-10-16T09:56:09;5.90;;;3.47;;
7583;SDS011;3833;41.764;26.204;2022-10-16T09:58:41;4.03;;;3.57;;
7583;SDS011;3833;41.764;26.204;2022-10-16T10:01:12;5.33;;;3.67;;
7583;SDS011;3833;41.764;26.204;2022-10-16T10:03:41;4.43;;;3.20;;
7583;SDS011;3833;41.764;26.204;2022-10-16T10:06:17;7.50;;;4.07;;
7583;SDS011;3833;41.764;26.204;2022-10-16T10:08:58;4.97;;;3.53;;
7583;SDS011;3833;41.764;26.204;2022-10-16T10:11:41;3.53;;;3.10;;
7583;SDS011;3833;41.764;26.204;2022-10-16T10:14:16;4.43;;;3.30;;
7583;SDS011;3833;41.764;26.204;2022-10-16T10:16:52;4.87;;;3.27;;
7583;SDS011;3833;41.764;26.204;2022-10-16T10:19:28;4.23;;;2.80;;
7583;SDS011;3833;41.764;26.204;2022-10-16T10:21:55;8.60;;;3.17;;
7583;SDS011;3833;41.764;26.204;2022-10-16T10:24:23;4.93;;;2.90;;
7583;SDS011;3833;41.764;26.204;2022-10-16T10:26:52;3.97;;;2.87;;
7583;SDS011;3833;41.764;26.204;2022-10-16T10:29:46;5.63;;;2.90;;
7583;SDS011;3833;41.764;26.204;2022-10-16T10:32:22;5.43;;;3.00;;
7583;SDS011;3833;41.764;26.204;2022-10-16T10:34:59;6.13;;;3.13;;
7583;SDS011;3833;41.764;26.204;2022-10-16T10:37:37;4.63;;;3.03;;
7583;SDS011;3833;41.764;26.204;2022-10-16T10:40:22;5.43;;;2.87;;
7583;SDS011;3833;41.764;26.204;2022-10-16T10:42:57;11.27;;;3.17;;
7583;SDS011;3833;41.764;26.204;2022-10-16T10:45:33;4.47;;;3.43;;
7583;SDS011;3833;41.764;26.204;2022-10-16T10:48:17;5.80;;;3.00;;
7583;SDS011;3833;41.764;26.204;2022-10-16T10:50:53;6.13;;;3.23;;
7583;SDS011;3833;41.764;26.204;2022-10-16T10:53:25;3.23;;;2.60;;
7583;SDS011;3833;41.764;26.204;2022-10-16T10:56:07;5.93;;;3.23;;
7583;SDS011;3833;41.764;26.204;2022-10-16T11:01:33;3.80;;;2.40;;
7583;SDS011;3833;41.764;26.204;2022-10-16T11:04:25;4.77;;;3.50;;
7583;SDS011;3833;41.764;26.204;2022-10-16T11:07:05;5.47;;;2.67;;
7583;SDS011;3833;41.764;26.204;2022-10-16T11:09:39;4.87;;;2.80;;
7583;SDS011;3833;41.764;26.204;2022-10-16T11:12:16;4.93;;;3.13;;
7583;SDS011;3833;41.764;26.204;2022-10-16T11:14:49;5.77;;;2.80;;
7583;SDS011;3833;41.764;26.204;2022-10-16T11:17:25;4.80;;;3.10;;
7583;SDS011;3833;41.764;26.204;2022-10-16T11:20:00;5.00;;;2.77;;
7583;SDS011;3833;41.764;26.204;2022-10-16T11:22:37;3.77;;;2.63;;
7583;SDS011;3833;41.764;26.204;2022-10-16T11:25:12;5.73;;;2.40;;
7583;SDS011;3833;41.764;26.204;2022-10-16T11:27:45;5.73;;;2.90;;
7583;SDS011;3833;41.764;26.204;2022-10-16T11:30:17;5.37;;;3.20;;
7583;SDS011;3833;41.764;26.204;2022-10-16T11:32:52;3.27;;;2.97;;
7583;SDS011;3833;41.764;26.204;2022-10-16T11:35:32;4.70;;;2.97;;
7583;SDS011;3833;41.764;26.204;2022-10-16T11:38:07;5.83;;;2.70;;
7583;SDS011;3833;41.764;26.204;2022-10-16T11:40:41;4.93;;;3.27;;
7583;SDS011;3833;41.764;26.204;2022-10-16T11:43:15;4.67;;;2.83;;
7583;SDS011;3833;41.764;26.204;2022-10-16T11:45:48;2.90;;;2.47;;
7583;SDS011;3833;41.764;26.204;2022-10-16T11:48:21;3.67;;;2.70;;
7583;SDS011;3833;41.764;26.204;2022-10-16T11:50:54;4.13;;;2.80;;
7583;SDS011;3833;41.764;26.204;2022-10-16T11:53:31;7.53;;;3.27;;
7583;SDS011;3833;41.764;26.204;2022-10-16T11:56:11;3.10;;;2.80;;
7583;SDS011;3833;41.764;26.204;2022-10-16T11:58:50;7.90;;;2.83;;
7583;SDS011;3833;41.764;26.204;2022-10-16T12:01:26;4.83;;;3.00;;
7583;SDS011;3833;41.764;26.204;2022-10-16T12:04:01;3.93;;;2.83;;
7583;SDS011;3833;41.764;26.204;2022-10-16T12:06:34;4.87;;;2.70;;
7583;SDS011;3833;41.764;26.204;2022-10-16T12:09:09;6.53;;;3.13;;
7583;SDS011;3833;41.764;26.204;2022-10-16T12:11:41;3.47;;;2.43;;
7583;SDS011;3833;41.764;26.204;2022-10-16T12:14:33;5.87;;;4.27;;
7583;SDS011;3833;41.764;26.204;2022-10-16T12:19:58;3.73;;;2.83;;
7583;SDS011;3833;41.764;26.204;2022-10-16T12:22:27;5.03;;;2.40;;
7583;SDS011;3833;41.764;26.204;2022-10-16T12:24:56;3.17;;;2.77;;
7583;SDS011;3833;41.764;26.204;2022-10-16T12:27:25;4.37;;;2.90;;
7583;SDS011;3833;41.764;26.204;2022-10-16T12:29:57;4.17;;;2.60;;
7583;SDS011;3833;41.764;26.204;2022-10-16T12:32:30;8.33;;;3.27;;
7583;SDS011;3833;41.764;26.204;2022-10-16T12:34:59;7.40;;;3.30;;
7583;SDS011;3833;41.764;26.204;2022-10-16T12:40:31;5.03;;;3.10;;
7583;SDS011;3833;41.764;26.204;2022-10-16T12:43:43;2.97;;;2.67;;
7583;SDS011;3833;41.764;26.204;2022-10-16T12:46:38;6.67;;;3.30;;
7583;SDS011;3833;41.764;26.204;2022-10-16T12:49:20;4.67;;;2.93;;
7583;SDS011;3833;41.764;26.204;2022-10-16T12:51:51;4.73;;;3.20;;
7583;SDS011;3833;41.764;26.204;2022-10-16T12:54:18;4.17;;;3.40;;
7583;SDS011;3833;41.764;26.204;2022-10-16T12:56:51;3.57;;;3.00;;
7583;SDS011;3833;41.764;26.204;2022-10-16T12:59:31;4.83;;;3.37;;
7583;SDS011;3833;41.764;26.204;2022-10-16T13:05:17;8.83;;;3.47;;
7583;SDS011;3833;41.764;26.204;2022-10-16T13:07:54;6.60;;;3.57;;
7583;SDS011;3833;41.764;26.204;2022-10-16T13:10:33;6.20;;;3.27;;
7583;SDS011;3833;41.764;26.204;2022-10-16T13:16:12;4.47;;;3.47;;
7583;SDS011;3833;41.764;26.204;2022-10-16T13:18:48;3.30;;;3.00;;
7583;SDS011;3833;41.764;26.204;2022-10-16T13:21:28;8.20;;;3.67;;
7583;SDS011;3833;41.764;26.204;2022-10-16T13:24:02;3.73;;;3.17;;
7583;SDS011;3833;41.764;26.204;2022-10-16T13:26:40;6.90;;;3.57;;
7583;SDS011;3833;41.764;26.204;2022-10-16T13:29:15;2.83;;;2.63;;
7583;SDS011;3833;41.764;26.204;2022-10-16T13:31:43;3.43;;;3.13;;
7583;SDS011;3833;41.764;26.204;2022-10-16T13:34:13;7.23;;;3.37;;
7583;SDS011;3833;41.764;26.204;2022-10-16T13:36:44;4.90;;;4.43;;
7583;SDS011;3833;41.764;26.204;2022-10-16T13:39:13;11.97;;;4.00;;
7583;SDS011;3833;41.764;26.204;2022-10-16T13:41:42;5.80;;;3.27;;
7583;SDS011;3833;41.764;26.204;2022-10-16T13:44:13;3.47;;;3.17;;
7583;SDS011;3833;41.764;26.204;2022-10-16T13:49:44;3.83;;;3.43;;
7583;SDS011;3833;41.764;26.204;2022-10-16T13:52:17;3.73;;;2.83;;
7583;SDS011;3833;41.764;26.204;2022-10-16T13:54:45;8.70;;;4.00;;
7583;SDS011;3833;41.764;26.204;2022-10-16T13:57:13;4.47;;;3.37;;
7583;SDS011;3833;41.764;26.204;2022-10-16T13:59:43;4.67;;;3.40;;
7583;SDS011;3833;41.764;26.204;2022-10-16T14:02:35;4.77;;;3.50;;
7583;SDS011;3833;41.764;26.204;2022-10-16T14:05:13;7.43;;;3.17;;
7583;SDS011;3833;41.764;26.204;2022-10-16T14:07:43;3.93;;;3.07;;
7583;SDS011;3833;41.764;26.204;2022-10-16T14:10:22;3.63;;;3.33;;
7583;SDS011;3833;41.764;26.204;2022-10-16T14:12:57;5.97;;;3.50;;
7583;SDS011;3833;41.764;26.204;2022-10-16T14:15:40;4.20;;;3.10;;
7583;SDS011;3833;41.764;26.204;2022-10-16T14:18:15;5.23;;;3.67;;
7583;SDS011;3833;41.764;26.204;2022-10-16T14:20:48;4.80;;;3.90;;
7583;SDS011;3833;41.764;26.204;2022-10-16T14:23:20;4.50;;;3.80;;
7583;SDS011;3833;41.764;26.204;2022-10-16T14:25:51;6.17;;;3.73;;
7583;SDS011;3833;41.764;26.204;2022-10-16T14:28:19;4.30;;;3.90;;
7583;SDS011;3833;41.764;26.204;2022-10-16T14:30:49;4.50;;;3.37;;
7583;SDS011;3833;41.764;26.204;2022-10-16T14:33:21;7.83;;;3.30;;
7583;SDS011;3833;41.764;26.204;2022-10-16T14:36:01;6.20;;;3.83;;
7583;SDS011;3833;41.764;26.204;2022-10-16T14:38:31;7.03;;;3.60;;
7583;SDS011;3833;41.764;26.204;2022-10-16T14:41:00;4.80;;;3.47;;
7583;SDS011;3833;41.764;26.204;2022-10-16T14:43:30;8.73;;;3.73;;
7583;SDS011;3833;41.764;26.204;2022-10-16T14:45:59;7.40;;;3.63;;
7583;SDS011;3833;41.764;26.204;2022-10-16T14:48:29;3.90;;;3.40;;
7583;SDS011;3833;41.764;26.204;2022-10-16T14:50:56;7.30;;;4.27;;
7583;SDS011;3833;41.764;26.204;2022-10-16T14:53:24;4.53;;;3.40;;
7583;SDS011;3833;41.764;26.204;2022-10-16T14:55:51;5.70;;;3.70;;
7583;SDS011;3833;41.764;26.204;2022-10-16T14:58:21;7.50;;;4.30;;
7583;SDS011;3833;41.764;26.204;2022-10-16T15:00:49;4.20;;;3.80;;
7583;SDS011;3833;41.764;26.204;2022-10-16T15:03:16;4.40;;;3.67;;
7583;SDS011;3833;41.764;26.204;2022-10-16T15:05:43;4.10;;;3.63;;
7583;SDS011;3833;41.764;26.204;2022-10-16T15:08:10;4.73;;;3.30;;
7583;SDS011;3833;41.764;26.204;2022-10-16T15:10:40;5.07;;;3.20;;
7583;SDS011;3833;41.764;26.204;2022-10-16T15:13:11;5.97;;;3.77;;
7583;SDS011;3833;41.764;26.204;2022-10-16T15:15:40;10.50;;;4.10;;
7583;SDS011;3833;41.764;26.204;2022-10-16T15:18:12;6.40;;;3.67;;
7583;SDS011;3833;41.764;26.204;2022-10-16T15:20:58;5.27;;;3.50;;
7583;SDS011;3833;41.764;26.204;2022-10-16T15:23:30;5.93;;;4.33;;
7583;SDS011;3833;41.764;26.204;2022-10-16T15:25:59;5.97;;;3.93;;
7583;SDS011;3833;41.764;26.204;2022-10-16T15:28:28;8.27;;;4.23;;
7583;SDS011;3833;41.764;26.204;2022-10-16T15:30:55;7.37;;;3.60;;
7583;SDS011;3833;41.764;26.204;2022-10-16T15:33:24;8.40;;;4.83;;
7583;SDS011;3833;41.764;26.204;2022-10-16T15:35:58;5.60;;;3.67;;
7583;SDS011;3833;41.764;26.204;2022-10-16T15:38:25;9.53;;;4.43;;
7583;SDS011;3833;41.764;26.204;2022-10-16T15:40:54;7.77;;;3.80;;